Menu Close Menu
Station Historical Data
Daily Summary for July 4, 2017 Units:  English    Metric   Both
« Previous Day
Next Day »
Daily Weekly Monthly Yearly Custom
  High: Low: Average:
Temperature: 88.6 °F 69.9 °F 74.6 °F
Dew Point: 74.4 °F 66.5 °F 69.4 °F
Humidity: 94% 56% 85%
Wind Speed: 7.1mph 0.0mph 4.7mph
Wind Gust: 7.1mph - -
Wind- - SSW
Pressure: 30.11 in 30.05 in -
Precipitation: 0.00 in    
Historical Graphs
 
 
Tabular Data for July 4, 2017
Time Temperature Dew Point Pressure Wind Wind Speed Wind Gust Humidity Rainfall Rate (Hourly) solar Conditions
00:03 73.8 °F 68.3 °F 30.06 in North 5.1 mph   83% 0.00 in WeatherDisplay:10.37 W/m2 BKN
00:08 73.6 °F 68.1 °F 30.06 in North 5.1 mph   83% 0.00 in WeatherDisplay:10.37 W/m2 BKN
00:13 73.4 °F 67.9 °F 30.06 in North 5.1 mph   83% 0.00 in WeatherDisplay:10.37 W/m2 BKN
00:18 73.2 °F 68.1 °F 30.06 in North 5.1 mph   84% 0.00 in WeatherDisplay:10.37 W/m2 CLR
00:23 73.1 °F 68.0 °F 30.06 in North 5.1 mph   84% 0.00 in WeatherDisplay:10.37 W/m2 CLR
00:28 72.7 °F 67.9 °F 30.05 in North 5.1 mph   85% 0.00 in WeatherDisplay:10.37 W/m2 CLR
00:33 72.5 °F 68.1 °F 30.05 in North 5.1 mph   86% 0.00 in WeatherDisplay:10.37 W/m2 CLR
00:38 72.3 °F 67.9 °F 30.05 in North 5.1 mph   86% 0.00 in WeatherDisplay:10.37 W/m2 CLR
00:43 72.1 °F 67.7 °F 30.05 in North 5.1 mph   86% 0.00 in WeatherDisplay:10.37 W/m2 CLR
00:48 72.0 °F 67.9 °F 30.05 in North 5.1 mph   87% 0.00 in WeatherDisplay:10.37 W/m2 CLR
00:53 71.7 °F 67.6 °F 30.05 in North 5.1 mph   87% 0.00 in WeatherDisplay:10.37 W/m2 CLR
00:58 71.5 °F 67.4 °F 30.05 in North 5.1 mph   87% 0.00 in WeatherDisplay:10.37 W/m2 CLR
01:04 71.4 °F 67.7 °F 30.05 in North 5.1 mph   88% 0.00 in WeatherDisplay:10.37 W/m2 CLR
01:09 71.3 °F 67.6 °F 30.05 in North 5.1 mph   88% 0.00 in WeatherDisplay:10.37 W/m2 CLR
01:14 71.2 °F 67.5 °F 30.05 in North 5.1 mph   88% 0.00 in WeatherDisplay:10.37 W/m2 CLR
01:19 71.1 °F 67.4 °F 30.05 in North 5.1 mph   88% 0.00 in WeatherDisplay:10.37 W/m2 CLR
01:24 70.9 °F 67.2 °F 30.05 in North 5.1 mph   88% 0.00 in WeatherDisplay:10.37 W/m2 CLR
01:29 70.8 °F 67.4 °F 30.05 in North 5.1 mph   89% 0.00 in WeatherDisplay:10.37 W/m2 CLR
01:34 70.6 °F 67.2 °F 30.05 in North 5.1 mph   89% 0.00 in WeatherDisplay:10.37 W/m2 CLR
01:39 69.9 °F 66.5 °F 30.05 in North 5.1 mph   89% 0.00 in WeatherDisplay:10.37 W/m2 CLR
01:44 70.9 °F 67.2 °F 30.05 in North 5.1 mph   88% 0.00 in WeatherDisplay:10.37 W/m2 CLR
01:49 70.9 °F 67.2 °F 30.05 in North 5.1 mph   88% 0.00 in WeatherDisplay:10.37 W/m2 CLR
01:54 70.9 °F 67.2 °F 30.05 in North 5.1 mph   88% 0.00 in WeatherDisplay:10.37 W/m2 CLR
01:59 70.9 °F 67.2 °F 30.05 in North 5.1 mph   88% 0.00 in WeatherDisplay:10.37 W/m2 CLR
02:04 70.9 °F 67.2 °F 30.05 in North 5.1 mph   88% 0.00 in WeatherDisplay:10.37 W/m2 CLR
02:09 70.9 °F 67.2 °F 30.06 in North 5.1 mph   88% 0.00 in WeatherDisplay:10.37 W/m2 CLR
02:14 70.9 °F 67.2 °F 30.06 in North 5.1 mph   88% 0.00 in WeatherDisplay:10.37 W/m2 CLR
02:19 70.9 °F 67.2 °F 30.06 in North 5.1 mph   88% 0.00 in WeatherDisplay:10.37 W/m2 CLR
02:24 70.9 °F 67.2 °F 30.06 in North 5.1 mph   88% 0.00 in WeatherDisplay:10.37 W/m2 CLR
02:29 70.9 °F 67.2 °F 30.06 in North 5.1 mph   88% 0.00 in WeatherDisplay:10.37 W/m2 CLR
02:34 70.9 °F 67.2 °F 30.06 in North 5.1 mph   88% 0.00 in WeatherDisplay:10.37 W/m2 CLR
02:40 70.9 °F 67.2 °F 30.06 in North 5.1 mph   88% 0.00 in WeatherDisplay:10.37 W/m2 CLR
02:45 70.9 °F 67.2 °F 30.05 in Calm     88% 0.00 in WeatherDisplay:10.37 W/m2 CLR
02:50 70.9 °F 67.2 °F 30.06 in Calm     88% 0.00 in WeatherDisplay:10.37 W/m2 CLR
02:55 70.9 °F 67.2 °F 30.06 in Calm     88% 0.00 in WeatherDisplay:10.37 W/m2 CLR
03:00 70.9 °F 67.2 °F 30.06 in Calm     88% 0.00 in WeatherDisplay:10.37 W/m2 CLR
03:05 70.9 °F 67.2 °F 30.05 in Calm     88% 0.00 in WeatherDisplay:10.37 W/m2 CLR
03:10 70.9 °F 67.2 °F 30.05 in Calm     88% 0.00 in WeatherDisplay:10.37 W/m2 CLR
03:15 70.9 °F 67.2 °F 30.05 in Calm     88% 0.00 in WeatherDisplay:10.37 W/m2 CLR
03:20 70.9 °F 67.2 °F 30.05 in Calm     88% 0.00 in WeatherDisplay:10.37 W/m2 CLR
03:25 70.9 °F 67.2 °F 30.05 in Calm     88% 0.00 in WeatherDisplay:10.37 W/m2 CLR
03:30 70.9 °F 67.2 °F 30.05 in Calm     88% 0.00 in WeatherDisplay:10.37 W/m2 CLR
03:35 70.9 °F 67.2 °F 30.05 in Calm     88% 0.00 in WeatherDisplay:10.37 W/m2 CLR
03:40 70.9 °F 67.2 °F 30.06 in Calm     88% 0.00 in WeatherDisplay:10.37 W/m2 CLR
03:45 70.9 °F 67.2 °F 30.06 in Calm     88% 0.00 in WeatherDisplay:10.37 W/m2 CLR
03:49 70.9 °F 67.2 °F 30.06 in North 5.1 mph   88% 0.00 in WeatherDisplay:10.37 W/m2 CLR
03:54 70.9 °F 67.2 °F 30.06 in North 5.1 mph   88% 0.00 in WeatherDisplay:10.37 W/m2 CLR
03:59 70.9 °F 67.2 °F 30.06 in North 5.1 mph   88% 0.00 in WeatherDisplay:10.37 W/m2 CLR
04:04 70.9 °F 67.2 °F 30.06 in North 5.1 mph   88% 0.00 in WeatherDisplay:10.37 W/m2 CLR
04:09 70.9 °F 67.2 °F 30.06 in North 5.1 mph   88% 0.00 in WeatherDisplay:10.37 W/m2 CLR
04:14 70.9 °F 67.2 °F 30.06 in North 5.1 mph   88% 0.00 in WeatherDisplay:10.37 W/m2 CLR
04:19 70.9 °F 67.2 °F 30.06 in North 5.1 mph   88% 0.00 in WeatherDisplay:10.37 W/m2 CLR
04:24 70.9 °F 67.2 °F 30.05 in North 5.1 mph   88% 0.00 in WeatherDisplay:10.37 W/m2 CLR
04:29 70.9 °F 67.2 °F 30.05 in North 5.1 mph   88% 0.00 in WeatherDisplay:10.37 W/m2 CLR
04:35 70.9 °F 67.2 °F 30.06 in Calm     88% 0.00 in WeatherDisplay:10.37 W/m2 CLR
04:40 70.9 °F 67.2 °F 30.06 in Calm     88% 0.00 in WeatherDisplay:10.37 W/m2 CLR
04:45 70.9 °F 67.2 °F 30.05 in Calm     88% 0.00 in WeatherDisplay:10.37 W/m2 CLR
04:50 70.9 °F 67.2 °F 30.06 in Calm     88% 0.00 in WeatherDisplay:10.37 W/m2 CLR
04:55 70.9 °F 67.2 °F 30.06 in Calm     88% 0.00 in WeatherDisplay:10.37 W/m2 CLR
05:00 70.9 °F 67.2 °F 30.06 in North 5.1 mph   88% 0.00 in WeatherDisplay:10.37 W/m2 CLR
05:05 70.9 °F 67.2 °F 30.06 in Calm     88% 0.00 in WeatherDisplay:10.37 W/m2 CLR
05:10 70.9 °F 67.2 °F 30.06 in Calm     88% 0.00 in WeatherDisplay:10.37 W/m2 CLR
05:15 70.9 °F 67.2 °F 30.06 in Calm     88% 0.00 in WeatherDisplay:10.37 W/m2 CLR
05:20 70.9 °F 67.2 °F 30.07 in Calm     88% 0.00 in WeatherDisplay:10.37 W/m2 CLR
05:25 70.9 °F 67.2 °F 30.07 in Calm     88% 0.00 in WeatherDisplay:10.37 W/m2 CLR
05:30 70.9 °F 67.2 °F 30.07 in Calm     88% 0.00 in WeatherDisplay:10.37 W/m2 CLR
05:35 70.9 °F 67.2 °F 30.07 in Calm     88% 0.00 in WeatherDisplay:10.37 W/m2 CLR
05:40 70.9 °F 67.2 °F 30.07 in Calm     88% 0.00 in WeatherDisplay:10.37 W/m2 CLR
05:45 70.9 °F 67.2 °F 30.07 in Calm     88% 0.00 in WeatherDisplay:10.37 W/m2 CLR
05:50 70.9 °F 67.2 °F 30.08 in Calm     88% 0.00 in WeatherDisplay:10.37 W/m2 CLR
05:55 70.9 °F 67.2 °F 30.08 in Calm     88% 0.00 in WeatherDisplay:10.37 W/m2 CLR
06:00 70.9 °F 67.2 °F 30.08 in North 5.1 mph   88% 0.00 in WeatherDisplay:10.37 W/m2 CLR
06:05 70.9 °F 67.2 °F 30.08 in Calm     88% 0.00 in WeatherDisplay:10.37 W/m2 CLR
06:10 70.9 °F 67.2 °F 30.08 in Calm     88% 0.00 in WeatherDisplay:10.37 W/m2 CLR
06:15 70.9 °F 67.2 °F 30.08 in Calm     88% 0.00 in WeatherDisplay:10.37 W/m2 CLR
06:20 70.9 °F 67.2 °F 30.08 in Calm     88% 0.00 in WeatherDisplay:10.37 W/m2 SCT
06:25 70.9 °F 67.2 °F 30.08 in Calm     88% 0.00 in WeatherDisplay:10.37 W/m2 SCT
06:30 70.9 °F 67.2 °F 30.08 in Calm     88% 0.00 in WeatherDisplay:10.37 W/m2 SCT
06:35 70.9 °F 67.2 °F 30.08 in North 5.1 mph   88% 0.00 in WeatherDisplay:10.37 W/m2 SCT
06:40 70.9 °F 67.2 °F 30.08 in Calm     88% 0.00 in WeatherDisplay:10.37 W/m2 SCT
06:45 70.9 °F 67.2 °F 30.09 in Calm     88% 0.00 in WeatherDisplay:10.37 W/m2 SCT
06:50 70.9 °F 67.2 °F 30.09 in North 5.1 mph   88% 0.00 in WeatherDisplay:10.37 W/m2 SCT
06:55 70.9 °F 67.2 °F 30.09 in Calm     88% 0.00 in WeatherDisplay:10.37 W/m2 SCT
07:00 70.9 °F 67.2 °F 30.09 in Calm     88% 0.00 in WeatherDisplay:10.37 W/m2 SCT
07:05 70.9 °F 67.2 °F 30.09 in Calm     88% 0.00 in WeatherDisplay:10.37 W/m2 SCT
07:10 70.9 °F 67.2 °F 30.09 in North 5.1 mph   88% 0.00 in WeatherDisplay:10.37 W/m2 SCT
07:15 70.9 °F 67.2 °F 30.09 in Calm     88% 0.00 in WeatherDisplay:10.37 W/m2 SCT
07:25 70.9 °F 67.2 °F 30.09 in Calm     88% 0.00 in WeatherDisplay:10.37 W/m2 FEW
07:30 70.9 °F 67.2 °F 30.10 in North 5.1 mph   88% 0.00 in WeatherDisplay:10.37 W/m2 FEW
07:35 70.9 °F 67.2 °F 30.09 in Calm     88% 0.00 in WeatherDisplay:10.37 W/m2 FEW
07:40 70.9 °F 67.2 °F 30.10 in Calm     88% 0.00 in WeatherDisplay:10.37 W/m2 FEW
07:45 70.9 °F 67.2 °F 30.10 in Calm     88% 0.00 in WeatherDisplay:10.37 W/m2 FEW
07:50 70.9 °F 67.2 °F 30.10 in North 5.1 mph   88% 0.00 in WeatherDisplay:10.37 W/m2 FEW
07:55 69.9 °F 67.8 °F 30.10 in Calm     93% 0.00 in WeatherDisplay:10.37 W/m2 FEW
08:00 70.1 °F 68.0 °F 30.10 in Calm     93% 0.00 in WeatherDisplay:10.37 W/m2 FEW
08:05 70.4 °F 68.2 °F 30.10 in Calm     93% 0.00 in WeatherDisplay:10.37 W/m2 FEW
08:10 70.6 °F 68.4 °F 30.10 in Calm     93% 0.00 in WeatherDisplay:10.37 W/m2 FEW
08:15 70.8 °F 68.7 °F 30.10 in Calm     93% 0.00 in WeatherDisplay:10.37 W/m2 FEW
08:21 71.1 °F 69.0 °F 30.10 in North 5.1 mph   93% 0.00 in WeatherDisplay:10.37 W/m2 FEW
08:26 71.4 °F 69.3 °F 30.10 in North 5.1 mph   93% 0.00 in WeatherDisplay:10.37 W/m2 FEW
08:31 71.6 °F 69.2 °F 30.11 in North 5.1 mph   92% 0.00 in WeatherDisplay:10.37 W/m2 FEW
08:36 71.9 °F 69.4 °F 30.11 in North 5.1 mph   92% 0.00 in WeatherDisplay:10.37 W/m2 FEW
08:41 72.2 °F 69.4 °F 30.11 in North 5.1 mph   91% 0.00 in WeatherDisplay:10.37 W/m2 FEW
08:46 72.6 °F 69.8 °F 30.11 in North 5.1 mph   91% 0.00 in WeatherDisplay:10.37 W/m2 FEW
08:51 73.0 °F 69.9 °F 30.11 in North 5.1 mph   90% 0.00 in WeatherDisplay:10.37 W/m2 FEW
08:56 73.5 °F 70.1 °F 30.11 in North 5.1 mph   89% 0.00 in WeatherDisplay:10.37 W/m2 FEW
09:01 73.9 °F 70.1 °F 30.11 in North 5.1 mph   88% 0.00 in WeatherDisplay:10.37 W/m2 FEW
09:06 74.3 °F 70.5 °F 30.11 in North 5.1 mph   88% 0.00 in WeatherDisplay:10.37 W/m2 FEW
09:11 74.8 °F 71.0 °F 30.11 in North 5.1 mph   88% 0.00 in WeatherDisplay:10.37 W/m2 FEW
09:16 75.3 °F 70.8 °F 30.11 in North 5.1 mph   86% 0.00 in WeatherDisplay:10.37 W/m2 FEW
09:21 75.8 °F 71.0 °F 30.11 in North 5.1 mph   85% 0.00 in WeatherDisplay:10.37 W/m2 FEW
09:27 76.3 °F 71.5 °F 30.11 in North 5.1 mph   85% 0.00 in WeatherDisplay:10.37 W/m2 FEW
09:32 76.8 °F 71.9 °F 30.11 in North 5.1 mph   85% 0.00 in WeatherDisplay:10.37 W/m2 FEW
09:37 77.3 °F 72.1 °F 30.11 in North 5.1 mph   84% 0.00 in WeatherDisplay:10.37 W/m2 FEW
09:42 77.8 °F 72.2 °F 30.10 in North 5.1 mph   83% 0.00 in WeatherDisplay:10.37 W/m2 FEW
09:47 78.2 °F 72.3 °F 30.11 in North 5.1 mph   82% 0.00 in WeatherDisplay:10.37 W/m2 FEW
09:52 78.6 °F 72.3 °F 30.10 in NNW 5.1 mph   81% 0.00 in WeatherDisplay:10.37 W/m2 FEW
09:57 78.9 °F 72.2 °F 30.10 in NNW 5.1 mph   80% 0.00 in WeatherDisplay:10.37 W/m2 FEW
10:02 79.4 °F 72.3 °F 30.10 in NNW 5.1 mph 5.1 mph 79% 0.00 in WeatherDisplay:10.37 W/m2 FEW
10:07 79.9 °F 72.4 °F 30.10 in NW 5.1 mph   78% 0.00 in WeatherDisplay:10.37 W/m2 FEW
10:12 80.6 °F 73.5 °F 30.10 in NW 5.1 mph 5.1 mph 79% 0.00 in WeatherDisplay:10.37 W/m2 FEW
10:17 81.4 °F 73.5 °F 30.10 in NW 5.1 mph   77% 0.00 in WeatherDisplay:10.37 W/m2 FEW
10:22 82.0 °F 72.9 °F 30.10 in West 5.1 mph 5.1 mph 74% 0.00 in WeatherDisplay:10.37 W/m2 FEW
10:23 82.1 °F 73.0 °F 30.09 in West 5.1 mph 5.1 mph 74% 0.00 in WeatherDisplay:10.37 W/m2 FEW
10:28 82.4 °F 72.5 °F 30.10 in NW 5.1 mph 5.1 mph 72% 0.00 in WeatherDisplay:10.37 W/m2 FEW
10:33 82.7 °F 73.6 °F 30.10 in WNW 5.1 mph 5.1 mph 74% 0.00 in WeatherDisplay:10.37 W/m2 FEW
10:39 82.9 °F 73.4 °F 30.10 in NW 5.1 mph   73% 0.00 in WeatherDisplay:10.37 W/m2 FEW
10:44 83.0 °F 73.0 °F 30.10 in NNE 5.1 mph   72% 0.00 in WeatherDisplay:10.37 W/m2 FEW
10:49 83.2 °F 73.2 °F 30.10 in WSW 5.1 mph   72% 0.00 in WeatherDisplay:10.37 W/m2 FEW
10:54 83.3 °F 72.9 °F 30.10 in SSW 5.1 mph 5.1 mph 71% 0.00 in WeatherDisplay:10.37 W/m2 FEW
10:59 83.5 °F 72.7 °F 30.10 in NW 5.1 mph   70% 0.00 in WeatherDisplay:10.37 W/m2 FEW
11:04 83.6 °F 72.8 °F 30.10 in WSW 5.1 mph   70% 0.00 in WeatherDisplay:10.37 W/m2 FEW
11:09 84.0 °F 74.4 °F 30.10 in SW 5.1 mph 5.1 mph 73% 0.00 in WeatherDisplay:10.37 W/m2 FEW
11:13 84.1 °F 72.8 °F 30.10 in NW 5.1 mph 5.1 mph 69% 0.00 in WeatherDisplay:10.37 W/m2 FEW
11:18 84.3 °F 74.3 °F 30.10 in NW 5.1 mph   72% 0.00 in WeatherDisplay:10.37 W/m2 FEW
11:23 84.4 °F 73.1 °F 30.10 in NW 5.1 mph   69% 0.00 in WeatherDisplay:10.37 W/m2 FEW
11:28 84.2 °F 73.8 °F 30.10 in West 5.1 mph 5.1 mph 71% 0.00 in WeatherDisplay:10.37 W/m2 FEW
11:33 83.8 °F 73.0 °F 30.09 in West 5.1 mph   70% 0.00 in WeatherDisplay:10.37 W/m2 FEW
11:38 83.5 °F 73.1 °F 30.09 in SSW 5.1 mph 5.1 mph 71% 0.00 in WeatherDisplay:10.37 W/m2 FEW
11:44 83.7 °F 73.7 °F 30.09 in WNW 5.1 mph 5.1 mph 72% 0.00 in WeatherDisplay:10.37 W/m2 FEW
11:49 84.2 °F 72.9 °F 30.09 in SW 5.1 mph 5.1 mph 69% 0.00 in WeatherDisplay:10.37 W/m2 FEW
11:54 84.4 °F 74.0 °F 30.09 in NE 5.1 mph 5.1 mph 71% 0.00 in WeatherDisplay:10.37 W/m2 FEW
11:59 84.4 °F 72.2 °F 30.09 in NNW 5.1 mph 5.1 mph 67% 0.00 in WeatherDisplay:10.37 W/m2 FEW
12:04 84.5 °F 72.3 °F 30.09 in West 5.1 mph 5.1 mph 67% 0.00 in WeatherDisplay:10.37 W/m2 FEW
12:09 84.6 °F 73.3 °F 30.09 in North 5.1 mph   69% 0.00 in WeatherDisplay:10.37 W/m2 FEW
12:14 84.5 °F 72.3 °F 30.09 in NW 5.1 mph 5.1 mph 67% 0.00 in WeatherDisplay:10.37 W/m2 FEW
12:19 84.4 °F 73.5 °F 30.09 in WNW 5.1 mph   70% 0.00 in WeatherDisplay:10.37 W/m2 BKN
12:24 84.7 °F 73.8 °F 30.09 in West 5.1 mph 5.1 mph 70% 0.00 in WeatherDisplay:10.37 W/m2 BKN
12:29 85.2 °F 73.4 °F 30.09 in NW 5.1 mph   68% 0.00 in WeatherDisplay:10.37 W/m2 BKN
12:34 85.5 °F 73.7 °F 30.09 in SW 5.1 mph   68% 0.00 in WeatherDisplay:10.37 W/m2 BKN
12:39 85.8 °F 73.6 °F 30.08 in NW 5.1 mph   67% 0.00 in WeatherDisplay:10.37 W/m2 BKN
12:44 85.9 °F 72.8 °F 30.08 in North 5.1 mph   65% 0.00 in WeatherDisplay:10.37 W/m2 BKN
12:49 86.2 °F 73.5 °F 30.08 in NW 5.1 mph   66% 0.00 in WeatherDisplay:10.37 W/m2 BKN
12:54 86.8 °F 74.1 °F 30.08 in NW 5.1 mph   66% 0.00 in WeatherDisplay:10.37 W/m2 BKN
12:59 87.1 °F 73.0 °F 30.08 in West 5.1 mph 5.1 mph 63% 0.00 in WeatherDisplay:10.37 W/m2 BKN
13:05 87.4 °F 73.7 °F 30.07 in Calm   1.0 mph 64% 0.00 in WeatherDisplay:10.37 W/m2 BKN
13:10 87.5 °F 71.9 °F 30.07 in Calm   2.0 mph 60% 0.00 in WeatherDisplay:10.37 W/m2 BKN
13:15 87.2 °F 73.5 °F 30.07 in Calm   1.0 mph 64% 0.00 in WeatherDisplay:10.37 W/m2 BKN
13:20 87.7 °F 73.1 °F 30.07 in Calm   3.0 mph 62% 0.00 in WeatherDisplay:10.37 W/m2 BKN
13:25 87.9 °F 73.3 °F 30.07 in NNE 1.0 mph 3.0 mph 62% 0.00 in WeatherDisplay:10.37 W/m2 BKN
13:30 88.0 °F 72.4 °F 30.07 in Calm   2.0 mph 60% 0.00 in WeatherDisplay:10.37 W/m2 BKN
13:35 87.9 °F 73.3 °F 30.07 in Calm   2.0 mph 62% 0.00 in WeatherDisplay:10.37 W/m2 BKN
13:40 88.6 °F 73.4 °F 30.06 in SW 5.1 mph 5.1 mph 61% 0.00 in WeatherDisplay:10.37 W/m2 BKN
13:45 88.5 °F 73.3 °F 30.06 in SSW 5.1 mph 5.1 mph 61% 0.00 in WeatherDisplay:10.37 W/m2 OVC
13:50 88.5 °F 74.3 °F 30.07 in WSW 5.1 mph   63% 0.00 in WeatherDisplay:10.37 W/m2 OVC
13:56 88.4 °F 72.2 °F 30.07 in North 5.1 mph   59% 0.00 in WeatherDisplay:10.37 W/m2 BKN
14:01 88.1 °F 73.0 °F 30.06 in West 5.1 mph 5.1 mph 61% 0.00 in WeatherDisplay:10.37 W/m2 BKN
14:06 88.1 °F 73.4 °F 30.06 in West 5.1 mph   62% 0.00 in WeatherDisplay:10.37 W/m2 BKN
14:11 88.4 °F 74.2 °F 30.06 in NNW 5.1 mph 5.1 mph 63% 0.00 in WeatherDisplay:10.37 W/m2 BKN
14:16 88.5 °F 72.3 °F 30.06 in SW 5.1 mph 5.1 mph 59% 0.00 in WeatherDisplay:10.37 W/m2 BKN
14:21 88.4 °F 73.2 °F 30.06 in NW 6.9 mph 6.9 mph 61% 0.00 in WeatherDisplay:10.37 W/m2 BKN
14:26 88.1 °F 73.0 °F 30.05 in WNW 6.9 mph 6.9 mph 61% 0.00 in WeatherDisplay:10.37 W/m2 BKN
14:31 88.1 °F 73.9 °F 30.05 in WNW 6.9 mph   63% 0.00 in WeatherDisplay:10.37 W/m2 BKN
14:36 88.4 °F 73.7 °F 30.05 in South 6.9 mph   62% 0.00 in WeatherDisplay:10.37 W/m2 BKN
14:41 88.3 °F 72.2 °F 30.05 in SW 6.9 mph 6.9 mph 59% 0.00 in WeatherDisplay:10.37 W/m2 BKN
14:46 88.2 °F 73.5 °F 30.05 in WNW 6.9 mph 6.9 mph 62% 0.00 in WeatherDisplay:10.37 W/m2 BKN
14:51 88.1 °F 73.9 °F 30.05 in WNW 6.9 mph   63% 0.00 in WeatherDisplay:10.37 W/m2 BKN
14:56 87.8 °F 73.6 °F 30.06 in ESE 6.9 mph 6.9 mph 63% 0.00 in WeatherDisplay:10.37 W/m2 BKN
15:01 85.9 °F 68.4 °F 30.08 in SE 6.9 mph 6.9 mph 56% 0.00 in WeatherDisplay:10.37 W/m2 BKN
15:06 81.6 °F 66.8 °F 30.10 in SSW 7.1 mph 7.1 mph 61% 0.00 in WeatherDisplay:10.37 W/m2 BKN
15:11 78.1 °F 67.1 °F 30.10 in West 7.1 mph 7.1 mph 69% 0.00 in WeatherDisplay:10.37 W/m2 BKN
15:17 76.2 °F 67.7 °F 30.11 in North 7.1 mph 7.1 mph 75% 0.00 in WeatherDisplay:10.37 W/m2 BKN
15:22 74.8 °F 68.2 °F 30.11 in WNW 7.1 mph 7.1 mph 80% 0.00 in WeatherDisplay:10.37 W/m2 BKN
15:27 73.4 °F 67.9 °F 30.10 in WNW 7.1 mph 7.1 mph 83% 0.00 in WeatherDisplay:10.37 W/m2 BKN
15:32 72.0 °F 67.2 °F 30.09 in SW 7.1 mph 7.1 mph 85% 0.00 in WeatherDisplay:10.37 W/m2 BKN
15:37 71.1 °F 66.7 °F 30.08 in WNW 7.1 mph 7.1 mph 86% 0.00 in WeatherDisplay:10.37 W/m2 BKN
15:42 70.7 °F 67.0 °F 30.08 in WNW 7.1 mph   88% 0.00 in WeatherDisplay:10.37 W/m2 BKN
15:47 70.5 °F 67.1 °F 30.07 in WNW 7.1 mph   89% 0.00 in WeatherDisplay:10.37 W/m2 -RA
15:52 70.4 °F 67.0 °F 30.07 in WNW 7.1 mph   89% 0.00 in WeatherDisplay:10.37 W/m2 -RA
15:57 70.4 °F 67.3 °F 30.07 in WNW 7.1 mph   90% 0.00 in WeatherDisplay:10.37 W/m2 -RA
16:02 70.6 °F 67.8 °F 30.07 in WNW 7.1 mph   91% 0.00 in WeatherDisplay:10.37 W/m2 -RA
16:07 70.7 °F 67.9 °F 30.07 in WNW 7.1 mph   91% 0.00 in WeatherDisplay:10.37 W/m2 -RA
16:12 71.1 °F 68.3 °F 30.07 in WNW 7.1 mph   91% 0.00 in WeatherDisplay:10.37 W/m2 -RA
16:17 71.3 °F 68.5 °F 30.07 in WNW 7.1 mph   91% 0.00 in WeatherDisplay:10.37 W/m2 -RA
16:22 71.5 °F 69.1 °F 30.07 in WNW 7.1 mph   92% 0.00 in WeatherDisplay:10.37 W/m2 -RA
16:27 71.9 °F 69.4 °F 30.07 in WNW 7.1 mph   92% 0.00 in WeatherDisplay:10.37 W/m2 -RA
16:32 72.1 °F 69.6 °F 30.07 in WNW 7.1 mph   92% 0.00 in WeatherDisplay:10.37 W/m2 -RA
16:38 72.4 °F 69.9 °F 30.07 in WNW 7.1 mph   92% 0.00 in WeatherDisplay:10.37 W/m2 -RA
16:43 72.9 °F 70.4 °F 30.07 in WNW 7.1 mph   92% 0.00 in WeatherDisplay:10.37 W/m2 -RA
16:48 73.1 °F 70.6 °F 30.07 in WNW 7.1 mph   92% 0.00 in WeatherDisplay:10.37 W/m2 -RA
16:53 73.7 °F 71.2 °F 30.07 in WNW 7.1 mph   92% 0.00 in WeatherDisplay:10.37 W/m2 -RA
16:58 74.1 °F 71.6 °F 30.07 in WNW 7.1 mph   92% 0.00 in WeatherDisplay:10.37 W/m2 -RA
17:03 74.7 °F 72.2 °F 30.07 in WNW 7.1 mph   92% 0.00 in WeatherDisplay:10.37 W/m2 -RA
17:08 75.1 °F 72.6 °F 30.06 in WNW 7.1 mph   92% 0.00 in WeatherDisplay:10.37 W/m2 -RA
17:13 75.2 °F 72.1 °F 30.06 in WNW 7.1 mph   90% 0.00 in WeatherDisplay:10.37 W/m2 -RA
17:18 75.1 °F 72.0 °F 30.07 in WNW 7.1 mph   90% 0.00 in WeatherDisplay:10.37 W/m2 BKN
17:23 74.9 °F 71.8 °F 30.08 in WNW 7.1 mph 7.1 mph 90% 0.00 in WeatherDisplay:10.37 W/m2 BKN
17:28 74.6 °F 71.5 °F 30.06 in West 7.1 mph 7.1 mph 90% 0.00 in WeatherDisplay:10.37 W/m2 BKN
17:33 74.4 °F 71.3 °F 30.06 in West 7.1 mph   90% 0.00 in WeatherDisplay:10.37 W/m2 BKN
17:38 74.2 °F 71.1 °F 30.06 in West 7.1 mph   90% 0.00 in WeatherDisplay:10.37 W/m2 BKN
17:44 74.1 °F 71.0 °F 30.06 in West 7.1 mph   90% 0.00 in WeatherDisplay:10.37 W/m2 BKN
17:49 73.9 °F 70.8 °F 30.06 in West 7.1 mph   90% 0.00 in WeatherDisplay:10.37 W/m2 BKN
17:54 73.5 °F 70.1 °F 30.06 in West 7.1 mph   89% 0.00 in WeatherDisplay:10.37 W/m2 BKN
17:59 73.2 °F 69.8 °F 30.06 in West 7.1 mph   89% 0.00 in WeatherDisplay:10.37 W/m2 -DZ
18:04 73.0 °F 69.9 °F 30.06 in West 7.1 mph   90% 0.00 in WeatherDisplay:10.37 W/m2 -DZ
18:09 72.7 °F 69.6 °F 30.07 in WNW 7.1 mph   90% 0.00 in WeatherDisplay:10.37 W/m2 -DZ
18:13 72.7 °F 69.6 °F 30.07 in WNW 7.1 mph   90% 0.00 in WeatherDisplay:10.37 W/m2 -DZ
18:18 72.6 °F 69.8 °F 30.06 in WNW 7.1 mph   91% 0.00 in WeatherDisplay:10.37 W/m2 BKN
18:23 72.5 °F 69.7 °F 30.06 in WNW 7.1 mph   91% 0.00 in WeatherDisplay:10.37 W/m2 BKN
18:24 72.4 °F 69.6 °F 30.06 in WNW 7.1 mph   91% 0.00 in WeatherDisplay:10.37 W/m2 BKN
18:29 72.4 °F 69.9 °F 30.06 in WNW 7.1 mph   92% 0.00 in WeatherDisplay:10.37 W/m2 BKN
18:34 72.3 °F 69.8 °F 30.06 in West 7.1 mph 7.1 mph 92% 0.00 in WeatherDisplay:10.37 W/m2 BKN
18:39 72.3 °F 69.8 °F 30.07 in West 7.1 mph 7.1 mph 92% 0.00 in WeatherDisplay:10.37 W/m2 BKN
18:44 72.1 °F 69.6 °F 30.06 in WNW 7.1 mph   92% 0.00 in WeatherDisplay:10.37 W/m2 BKN
18:49 71.8 °F 69.3 °F 30.06 in WNW 7.1 mph   92% 0.00 in WeatherDisplay:10.37 W/m2 -RA
18:54 71.7 °F 69.3 °F 30.07 in WNW 7.1 mph   92% 0.00 in WeatherDisplay:10.37 W/m2 -RA
18:59 71.5 °F 69.1 °F 30.06 in WNW 7.1 mph   92% 0.00 in WeatherDisplay:10.37 W/m2 -RA
19:04 71.5 °F 69.1 °F 30.06 in WNW 7.1 mph   92% 0.00 in WeatherDisplay:10.37 W/m2 -RA
19:09 71.3 °F 68.9 °F 30.07 in WNW 7.1 mph   92% 0.00 in WeatherDisplay:10.37 W/m2 -RA
19:14 71.2 °F 68.8 °F 30.07 in WNW 7.1 mph   92% 0.00 in WeatherDisplay:10.37 W/m2 -RA
19:19 71.0 °F 68.6 °F 30.06 in WNW 7.1 mph   92% 0.00 in WeatherDisplay:10.37 W/m2 -RA
19:24 70.9 °F 68.5 °F 30.06 in WNW 7.1 mph   92% 0.00 in WeatherDisplay:10.37 W/m2 -RA
19:29 70.9 °F 68.5 °F 30.06 in WNW 7.1 mph   92% 0.00 in WeatherDisplay:10.37 W/m2 -RA
19:35 71.0 °F 68.6 °F 30.05 in WNW 7.1 mph   92% 0.00 in WeatherDisplay:10.37 W/m2 -RA
19:40 71.1 °F 68.7 °F 30.05 in Calm     92% 0.00 in WeatherDisplay:10.37 W/m2 -RA
19:45 71.2 °F 69.1 °F 30.05 in Calm     93% 0.00 in WeatherDisplay:10.37 W/m2 -RA
19:50 71.3 °F 69.1 °F 30.05 in Calm     93% 0.00 in WeatherDisplay:10.37 W/m2 -RA
19:55 71.2 °F 68.8 °F 30.06 in WNW 7.1 mph   92% 0.00 in WeatherDisplay:10.37 W/m2 -RA
20:00 71.3 °F 69.2 °F 30.06 in Calm     93% 0.00 in WeatherDisplay:10.37 W/m2 -RA
20:05 71.3 °F 69.2 °F 30.06 in Calm     93% 0.00 in WeatherDisplay:10.37 W/m2 -RA
20:10 71.4 °F 69.3 °F 30.06 in Calm     93% 0.00 in WeatherDisplay:10.37 W/m2 -RA
20:15 71.4 °F 69.2 °F 30.06 in Calm     93% 0.00 in WeatherDisplay:10.37 W/m2 -RA
20:20 71.4 °F 69.3 °F 30.06 in Calm     93% 0.00 in WeatherDisplay:10.37 W/m2 BKN
20:25 71.3 °F 68.8 °F 30.06 in Calm     92% 0.00 in WeatherDisplay:10.37 W/m2 BKN
20:30 71.2 °F 69.1 °F 30.06 in WNW 7.1 mph   93% 0.00 in WeatherDisplay:10.37 W/m2 BKN
20:35 71.2 °F 69.1 °F 30.06 in Calm     93% 0.00 in WeatherDisplay:10.37 W/m2 BKN
20:40 71.2 °F 69.1 °F 30.05 in WNW 7.1 mph   93% 0.00 in WeatherDisplay:10.37 W/m2 BKN
20:45 71.1 °F 69.0 °F 30.06 in WNW 7.1 mph   93% 0.00 in WeatherDisplay:10.37 W/m2 BKN
20:46 71.1 °F 69.0 °F 30.06 in WNW 7.1 mph   93% 0.00 in WeatherDisplay:10.37 W/m2 BKN
20:51 71.1 °F 69.0 °F 30.06 in WNW 7.1 mph   93% 0.00 in WeatherDisplay:10.37 W/m2 BKN
20:56 71.1 °F 69.0 °F 30.06 in WNW 7.1 mph   93% 0.00 in WeatherDisplay:10.37 W/m2 BKN
21:01 71.1 °F 69.0 °F 30.06 in WNW 7.1 mph   93% 0.00 in WeatherDisplay:10.37 W/m2 BKN
21:06 71.1 °F 69.0 °F 30.06 in WNW 7.1 mph   93% 0.00 in WeatherDisplay:10.37 W/m2 BKN
21:11 71.1 °F 69.0 °F 30.07 in WNW 7.1 mph   93% 0.00 in WeatherDisplay:10.37 W/m2 BKN
21:16 71.0 °F 68.9 °F 30.07 in WNW 7.1 mph   93% 0.00 in WeatherDisplay:10.37 W/m2 BKN
21:21 70.9 °F 68.8 °F 30.07 in WNW 7.1 mph   93% 0.00 in WeatherDisplay:10.37 W/m2 BKN
21:26 70.8 °F 68.7 °F 30.07 in WNW 7.1 mph   93% 0.00 in WeatherDisplay:10.37 W/m2 BKN
21:31 70.7 °F 68.6 °F 30.08 in WNW 7.1 mph   93% 0.00 in WeatherDisplay:10.37 W/m2 BKN
21:36 70.7 °F 68.6 °F 30.08 in WNW 7.1 mph   93% 0.00 in WeatherDisplay:10.37 W/m2 BKN
21:41 70.7 °F 68.6 °F 30.08 in WNW 7.1 mph   93% 0.00 in WeatherDisplay:10.37 W/m2 BKN
21:42 70.7 °F 68.6 °F 30.08 in WNW 7.1 mph   93% 0.00 in WeatherDisplay:10.37 W/m2 BKN
21:47 70.6 °F 68.5 °F 30.08 in WNW 7.1 mph   93% 0.00 in WeatherDisplay:10.37 W/m2 BKN
21:52 70.6 °F 68.5 °F 30.08 in WNW 7.1 mph   93% 0.00 in WeatherDisplay:10.37 W/m2 BKN
21:57 70.6 °F 68.5 °F 30.08 in WNW 7.1 mph   93% 0.00 in WeatherDisplay:10.37 W/m2 BKN
22:02 70.6 °F 68.5 °F 30.08 in WNW 7.1 mph   93% 0.00 in WeatherDisplay:10.37 W/m2 BKN
22:07 70.6 °F 68.5 °F 30.09 in WNW 7.1 mph   93% 0.00 in WeatherDisplay:10.37 W/m2 BKN
22:12 70.6 °F 68.5 °F 30.09 in WNW 7.1 mph   93% 0.00 in WeatherDisplay:10.37 W/m2 BKN
22:17 70.5 °F 68.4 °F 30.09 in WNW 7.1 mph   93% 0.00 in WeatherDisplay:10.37 W/m2 BKN
22:22 70.5 °F 68.4 °F 30.09 in WNW 7.1 mph   93% 0.00 in WeatherDisplay:10.37 W/m2 BKN
22:27 70.5 °F 68.4 °F 30.09 in WNW 7.1 mph   93% 0.00 in WeatherDisplay:10.37 W/m2 BKN
22:32 70.4 °F 68.3 °F 30.09 in WNW 7.1 mph   93% 0.00 in WeatherDisplay:10.37 W/m2 BKN
22:37 70.4 °F 68.3 °F 30.09 in WNW 7.1 mph   93% 0.00 in WeatherDisplay:10.37 W/m2 BKN
22:43 70.3 °F 68.2 °F 30.09 in WNW 7.1 mph   93% 0.00 in WeatherDisplay:10.37 W/m2 BKN
22:48 70.3 °F 68.2 °F 30.09 in WNW 7.1 mph   93% 0.00 in WeatherDisplay:10.37 W/m2 BKN
22:53 70.2 °F 68.1 °F 30.09 in WNW 7.1 mph   93% 0.00 in WeatherDisplay:10.37 W/m2 BKN
22:58 70.2 °F 68.1 °F 30.09 in WNW 7.1 mph   93% 0.00 in WeatherDisplay:10.37 W/m2 BKN
23:03 70.2 °F 68.1 °F 30.09 in WNW 7.1 mph   93% 0.00 in WeatherDisplay:10.37 W/m2 BKN
23:08 70.1 °F 68.0 °F 30.09 in WNW 7.1 mph   93% 0.00 in WeatherDisplay:10.37 W/m2 BKN
23:13 70.1 °F 68.0 °F 30.09 in WNW 7.1 mph   93% 0.00 in WeatherDisplay:10.37 W/m2 BKN
23:18 70.1 °F 68.0 °F 30.09 in WNW 7.1 mph   93% 0.00 in WeatherDisplay:10.37 W/m2 BKN
23:23 70.0 °F 67.9 °F 30.09 in WNW 7.1 mph   93% 0.00 in WeatherDisplay:10.37 W/m2 BKN
23:28 70.0 °F 67.9 °F 30.09 in WNW 7.1 mph   93% 0.00 in WeatherDisplay:10.37 W/m2 BKN
23:33 70.0 °F 67.9 °F 30.09 in WNW 7.1 mph   93% 0.00 in WeatherDisplay:10.37 W/m2 BKN
23:38 70.1 °F 68.0 °F 30.10 in WNW 7.1 mph   93% 0.00 in WeatherDisplay:10.37 W/m2 BKN
23:43 70.1 °F 68.0 °F 30.10 in WNW 7.1 mph   93% 0.00 in WeatherDisplay:10.37 W/m2 BKN
23:48 70.1 °F 68.0 °F 30.10 in WNW 7.1 mph   93% 0.00 in WeatherDisplay:10.37 W/m2 BKN
23:53 70.2 °F 68.1 °F 30.10 in WNW 7.1 mph   93% 0.00 in WeatherDisplay:10.37 W/m2 BKN
23:58 70.3 °F 68.5 °F 30.10 in WNW 7.1 mph   94% 0.00 in WeatherDisplay:10.37 W/m2 BKN
Piedmont Bend
Compliments of Weather Underground - 4 mb